Time;durP1;ratioP1;P1;durP2;ratioP2;P2;SDS_P1;SDS_P2;PMS_P1;PMS_P2;Temp;Humidity;BMP_temperature;BMP_pressure;BME280_temperature;BME280_humidity;BME280_pressure;Samples;Min_cycle;Max_cycle;Signal;HPM_P1;HPM_P2
2022/03/28 00:01:12;;;;;;;;;;;23.70;31.90;;;;;;1573382;74;739;-70
2022/03/28 00:03:14;;;;;;;;;;;23.60;31.70;;;;;;1570965;74;682;-71
2022/03/28 00:05:16;;;;;;;;;;;23.60;31.80;;;;;;1574011;74;794;-69
2022/03/28 00:07:18;;;;;;;;;;;23.60;31.80;;;;;;1573736;74;745;-68
2022/03/28 00:09:20;;;;;;;;;;;23.70;32.00;;;;;;1572532;74;1104;-69
2022/03/28 00:11:22;;;;;;;;;;;23.60;31.90;;;;;;1576824;74;734;-69
2022/03/28 00:13:24;;;;;;;;;;;23.60;31.90;;;;;;1565300;74;732;-69
2022/03/28 00:15:25;;;;;;;;;;;23.50;32.00;;;;;;1565965;74;715;-68
2022/03/28 00:17:27;;;;;;;;;;;23.60;32.00;;;;;;1570179;74;1976;-69
2022/03/28 00:19:29;;;;;;;;;;;23.50;32.10;;;;;;1574865;74;1097;-69
2022/03/28 00:21:31;;;;;;;;;;;23.60;32.10;;;;;;1566584;74;793;-70
2022/03/28 00:23:33;;;;;;;;;;;23.60;32.10;;;;;;1572592;74;726;-69
2022/03/28 00:25:35;;;;;;;;;;;23.60;32.10;;;;;;1590460;74;764;-69
2022/03/28 00:27:37;;;;;;;;;;;23.50;32.20;;;;;;1553980;74;647;-69
2022/03/28 00:29:39;;;;;;;;;;;23.50;32.20;;;;;;1550598;74;1130;-69
2022/03/28 00:31:41;;;;;;;;;;;23.60;32.20;;;;;;1585631;73;722;-68
2022/03/28 00:33:43;;;;;;;;;;;23.50;32.20;;;;;;1614901;72;777;-67
2022/03/28 00:35:45;;;;;;;;;;;23.50;32.20;;;;;;1610713;73;778;-68
2022/03/28 00:37:47;;;;;;;;;;;23.60;32.20;;;;;;1610533;72;1932;-68
2022/03/28 00:39:49;;;;;;;;;;;23.50;32.30;;;;;;1608946;72;1142;-69
2022/03/28 00:41:51;;;;;;;;;;;23.50;32.30;;;;;;1558492;75;684;-69
2022/03/28 00:43:54;;;;;;;;;;;23.50;32.40;;;;;;1550678;75;776;-72
2022/03/28 00:45:56;;;;;;;;;;;23.50;32.30;;;;;;1556089;75;1075;-69
2022/03/28 00:47:58;;;;;;;;;;;23.60;32.40;;;;;;1545576;75;685;-69
2022/03/28 00:50:00;;;;;;;;;;;23.50;32.40;;;;;;1586671;74;1144;-69
2022/03/28 00:52:02;;;;;;;;;;;23.50;32.40;;;;;;1534803;75;794;-71
2022/03/28 00:54:04;;;;;;;;;;;23.50;32.40;;;;;;1564252;75;780;-65
2022/03/28 00:56:07;;;;;;;;;;;23.60;32.60;;;;;;1557366;75;808;-67
2022/03/28 00:58:09;;;;;;;;;;;23.50;32.50;;;;;;1578360;74;1921;-67
2022/03/28 01:00:11;;;;;;;;;;;23.60;32.40;;;;;;1577188;74;1083;-66
2022/03/28 01:02:13;;;;;;;;;;;23.60;32.40;;;;;;1575314;74;726;-67
2022/03/28 01:04:15;;;;;;;;;;;23.50;32.50;;;;;;1563864;74;763;-67
2022/03/28 01:06:17;;;;;;;;;;;23.50;32.50;;;;;;1583333;74;724;-67
2022/03/28 01:08:18;;;;;;;;;;;23.50;32.50;;;;;;1587165;74;664;-66
2022/03/28 01:10:20;;;;;;;;;;;23.50;32.50;;;;;;1556288;74;1084;-70
2022/03/28 01:12:30;;;;;;;;;;;23.50;32.60;;;;;;1566697;74;728;-67
2022/03/28 01:14:32;;;;;;;;;;;23.50;32.60;;;;;;1579804;74;796;-66
2022/03/28 01:18:05;;;;;;;;;;;23.40;32.50;;;;;;1583026;74;803;-66
2022/03/28 01:18:37;;;;;;;;;;;23.40;32.50;;;;;;1552159;75;1916;-67
2022/03/28 01:20:40;;;;;;;;;;;23.50;32.60;;;;;;1558332;74;1182;-68
2022/03/28 01:22:42;;;;;;;;;;;23.40;32.60;;;;;;1583909;74;735;-67
2022/03/28 01:24:43;;;;;;;;;;;23.40;32.60;;;;;;1542111;75;736;-67
2022/03/28 01:26:46;;;;;;;;;;;23.40;32.60;;;;;;1603695;72;814;-68
2022/03/28 01:28:47;;;;;;;;;;;23.40;32.60;;;;;;1614296;72;1111;-67
2022/03/28 01:30:49;;;;;;;;;;;23.30;32.70;;;;;;1602316;72;778;-68
2022/03/28 01:32:56;;;;;;;;;;;23.30;32.70;;;;;;1612181;72;780;-66
2022/03/28 01:34:55;;;;;;;;;;;23.40;32.70;;;;;;1611625;73;882;-67
2022/03/28 01:36:57;;;;;;;;;;;23.40;32.70;;;;;;1609733;73;757;-67
2022/03/28 01:38:59;;;;;;;;;;;23.40;32.80;;;;;;1608024;72;1904;-67
2022/03/28 01:41:01;;;;;;;;;;;23.40;32.80;;;;;;1602698;73;736;-70
2022/03/28 01:43:03;;;;;;;;;;;23.40;32.80;;;;;;1614644;72;696;-65
2022/03/28 01:45:05;;;;;;;;;;;23.40;32.80;;;;;;1611815;72;1048;-67
2022/03/28 01:47:07;;;;;;;;;;;23.40;32.80;;;;;;1601230;72;809;-67
2022/03/28 01:49:08;;;;;;;;;;;23.40;32.80;;;;;;1598838;72;1107;-67
2022/03/28 01:51:10;;;;;;;;;;;23.30;32.80;;;;;;1606987;73;671;-67
2022/03/28 01:53:12;;;;;;;;;;;23.30;32.80;;;;;;1601858;72;720;-66
2022/03/28 01:55:14;;;;;;;;;;;23.40;32.80;;;;;;1607671;72;710;-67
2022/03/28 01:57:16;;;;;;;;;;;23.40;32.80;;;;;;1611640;72;764;-67
2022/03/28 01:59:18;;;;;;;;;;;23.40;32.80;;;;;;1610548;72;1924;-67
2022/03/28 02:01:20;;;;;;;;;;;23.30;32.80;;;;;;1613262;73;666;-67
2022/03/28 02:03:22;;;;;;;;;;;23.40;32.80;;;;;;1610742;73;722;-68
2022/03/28 02:05:23;;;;;;;;;;;23.40;32.80;;;;;;1622123;72;722;-67
2022/03/28 02:07:25;;;;;;;;;;;23.40;32.90;;;;;;1614552;72;709;-67
2022/03/28 02:09:27;;;;;;;;;;;23.40;32.90;;;;;;1606070;71;1114;-67
2022/03/28 02:11:30;;;;;;;;;;;23.30;32.90;;;;;;1591622;72;606;-68
2022/03/28 02:13:32;;;;;;;;;;;23.40;32.90;;;;;;1597112;73;757;-68
2022/03/28 02:15:34;;;;;;;;;;;23.30;32.80;;;;;;1606556;72;815;-66
2022/03/28 02:17:36;;;;;;;;;;;23.40;32.90;;;;;;1616455;72;921;-65
2022/03/28 02:19:38;;;;;;;;;;;23.40;32.90;;;;;;1608064;72;1935;-66
2022/03/28 02:21:40;;;;;;;;;;;23.40;32.90;;;;;;1599911;72;703;-65
2022/03/28 02:23:42;;;;;;;;;;;23.40;32.90;;;;;;1612285;72;781;-67
2022/03/28 02:25:44;;;;;;;;;;;23.40;32.90;;;;;;1613770;72;778;-66
2022/03/28 02:27:45;;;;;;;;;;;23.40;32.90;;;;;;1605813;72;762;-66
2022/03/28 02:29:47;;;;;;;;;;;23.50;33.00;;;;;;1601025;72;1115;-66
2022/03/28 02:31:49;;;;;;;;;;;23.50;33.00;;;;;;1607254;72;799;-67
2022/03/28 02:33:51;;;;;;;;;;;23.50;33.00;;;;;;1617232;73;740;-66
2022/03/28 02:35:53;;;;;;;;;;;23.50;33.00;;;;;;1608806;72;810;-65
2022/03/28 02:37:57;;;;;;;;;;;23.60;33.00;;;;;;1596399;73;798;-66
2022/03/28 02:39:58;;;;;;;;;;;23.60;32.90;;;;;;1547093;75;1928;-66
2022/03/28 02:42:00;;;;;;;;;;;23.60;32.80;;;;;;1600049;74;680;-66
2022/03/28 02:44:02;;;;;;;;;;;23.70;32.90;;;;;;1558545;75;730;-66
2022/03/28 02:46:04;;;;;;;;;;;23.70;32.90;;;;;;1605353;72;762;-67
2022/03/28 02:48:06;;;;;;;;;;;23.80;32.80;;;;;;1598525;72;778;-67
2022/03/28 02:50:08;;;;;;;;;;;23.80;32.90;;;;;;1602655;72;1112;-67
2022/03/28 02:52:10;;;;;;;;;;;23.80;32.80;;;;;;1610411;71;3041;-67
2022/03/28 02:54:12;;;;;;;;;;;23.80;32.90;;;;;;1594671;73;695;-65
2022/03/28 02:56:14;;;;;;;;;;;23.80;33.10;;;;;;1597503;73;737;-65
2022/03/28 02:58:16;;;;;;;;;;;23.80;33.10;;;;;;1596017;73;1944;-66
2022/03/28 03:00:18;;;;;;;;;;;23.90;33.10;;;;;;1595724;73;717;-65
2022/03/28 03:02:20;;;;;;;;;;;23.80;32.90;;;;;;1594832;73;1197;-66
2022/03/28 03:04:21;;;;;;;;;;;23.90;33.00;;;;;;1592094;73;736;-65
2022/03/28 03:06:23;;;;;;;;;;;24.00;32.90;;;;;;1591164;73;718;-65
2022/03/28 03:08:25;;;;;;;;;;;23.90;33.00;;;;;;1598911;73;695;-67
2022/03/28 03:10:27;;;;;;;;;;;24.00;32.90;;;;;;1593283;73;730;-65
2022/03/28 03:12:29;;;;;;;;;;;23.90;32.90;;;;;;1579898;73;1140;-66
2022/03/28 03:14:31;;;;;;;;;;;24.00;33.00;;;;;;1580427;73;712;-67
2022/03/28 03:16:33;;;;;;;;;;;23.90;32.90;;;;;;1609223;73;872;-65
2022/03/28 03:18:35;;;;;;;;;;;24.00;33.00;;;;;;1607919;73;1923;-65
2022/03/28 03:20:36;;;;;;;;;;;24.00;33.10;;;;;;1602190;73;651;-66
2022/03/28 03:22:38;;;;;;;;;;;24.00;33.10;;;;;;1609222;72;1141;-65
2022/03/28 03:24:41;;;;;;;;;;;24.00;33.10;;;;;;1585683;73;770;-66
2022/03/28 03:26:43;;;;;;;;;;;23.90;33.20;;;;;;1557702;75;726;-66
2022/03/28 03:28:45;;;;;;;;;;;24.00;33.10;;;;;;1546769;75;650;-67
2022/03/28 03:30:49;;;;;;;;;;;24.00;33.10;;;;;;1555207;75;798;-64
2022/03/28 03:32:51;;;;;;;;;;;23.90;33.20;;;;;;1571906;74;1121;-67
2022/03/28 03:34:55;;;;;;;;;;;23.90;33.20;;;;;;1581536;74;794;-66
2022/03/28 03:36:56;;;;;;;;;;;23.90;33.30;;;;;;1601598;74;765;-65
2022/03/28 03:38:58;;;;;;;;;;;23.90;33.40;;;;;;1593560;74;1945;-64
2022/03/28 03:41:00;;;;;;;;;;;23.90;33.50;;;;;;1585797;74;796;-64
2022/03/28 03:43:02;;;;;;;;;;;23.80;33.50;;;;;;1587103;73;1149;-64
2022/03/28 03:45:05;;;;;;;;;;;23.80;33.60;;;;;;1586069;74;659;-67
2022/03/28 03:47:07;;;;;;;;;;;23.80;34.10;;;;;;1580162;74;696;-66
2022/03/28 03:49:09;;;;;;;;;;;23.70;34.10;;;;;;1589448;74;802;-68
2022/03/28 03:51:11;;;;;;;;;;;23.80;34.10;;;;;;1581438;74;782;-67
2022/03/28 03:53:14;;;;;;;;;;;23.90;33.90;;;;;;1588769;73;1130;-67
2022/03/28 03:55:16;;;;;;;;;;;23.90;34.00;;;;;;1581809;74;693;-68
2022/03/28 03:57:18;;;;;;;;;;;23.80;34.00;;;;;;1595398;74;776;-68
2022/03/28 03:59:20;;;;;;;;;;;23.80;34.20;;;;;;1577868;74;1920;-68
2022/03/28 04:01:22;;;;;;;;;;;23.70;34.20;;;;;;1594381;74;809;-68
2022/03/28 04:03:24;;;;;;;;;;;23.70;34.30;;;;;;1576257;74;1175;-67
2022/03/28 04:05:27;;;;;;;;;;;23.70;34.40;;;;;;1591646;74;708;-71
2022/03/28 04:07:29;;;;;;;;;;;23.60;34.30;;;;;;1593912;74;679;-67
2022/03/28 04:09:31;;;;;;;;;;;23.60;34.20;;;;;;1574810;74;747;-67
2022/03/28 04:11:33;;;;;;;;;;;23.60;34.30;;;;;;1583403;74;736;-66
2022/03/28 04:13:35;;;;;;;;;;;23.60;34.40;;;;;;1606864;72;1119;-66
2022/03/28 04:15:37;;;;;;;;;;;23.60;34.40;;;;;;1597136;73;789;-66
2022/03/28 04:17:43;;;;;;;;;;;23.50;34.50;;;;;;1601864;73;727;-66
2022/03/28 04:19:45;;;;;;;;;;;23.50;34.50;;;;;;1606058;73;1916;-66
2022/03/28 04:21:48;;;;;;;;;;;23.50;34.50;;;;;;1592339;73;754;-67
2022/03/28 04:23:50;;;;;;;;;;;23.50;34.70;;;;;;1579549;73;1083;-67
2022/03/28 04:25:52;;;;;;;;;;;23.60;34.70;;;;;;1593090;73;786;-67
2022/03/28 04:27:53;;;;;;;;;;;23.40;34.60;;;;;;1610929;73;744;-66
2022/03/28 04:29:55;;;;;;;;;;;23.50;34.70;;;;;;1583156;74;733;-67
2022/03/28 04:31:57;;;;;;;;;;;23.40;34.70;;;;;;1605959;73;1148;-66
2022/03/28 04:33:59;;;;;;;;;;;23.40;34.70;;;;;;1606400;73;765;-67
2022/03/28 04:36:01;;;;;;;;;;;23.40;34.70;;;;;;1588362;73;695;-67
2022/03/28 04:38:05;;;;;;;;;;;23.60;34.80;;;;;;1608215;73;722;-66
2022/03/28 04:40:08;;;;;;;;;;;23.50;34.70;;;;;;1592457;73;1909;-66
2022/03/28 04:42:10;;;;;;;;;;;23.60;34.90;;;;;;1608844;73;1172;-65
2022/03/28 04:44:11;;;;;;;;;;;23.60;34.80;;;;;;1606916;73;743;-67
2022/03/28 04:46:13;;;;;;;;;;;23.50;34.90;;;;;;1601104;73;725;-66
2022/03/28 04:48:15;;;;;;;;;;;23.70;35.00;;;;;;1595521;74;728;-66
2022/03/28 04:50:17;;;;;;;;;;;23.70;35.00;;;;;;1583601;74;741;-66
2022/03/28 04:52:19;;;;;;;;;;;23.60;34.90;;;;;;1608442;73;1138;-65
2022/03/28 04:54:21;;;;;;;;;;;23.70;35.00;;;;;;1605590;73;797;-66
2022/03/28 04:56:23;;;;;;;;;;;23.70;35.00;;;;;;1581224;73;708;-66
2022/03/28 04:58:25;;;;;;;;;;;23.60;35.00;;;;;;1601348;73;663;-65
2022/03/28 05:00:27;;;;;;;;;;;23.70;35.00;;;;;;1539019;75;1937;-65
2022/03/28 05:02:29;;;;;;;;;;;23.70;35.20;;;;;;1579647;74;1184;-66
2022/03/28 05:04:30;;;;;;;;;;;23.70;35.10;;;;;;1618866;73;688;-69
2022/03/28 05:06:32;;;;;;;;;;;23.70;35.40;;;;;;1595624;73;788;-70
2022/03/28 05:08:35;;;;;;;;;;;23.80;35.00;;;;;;1599359;73;677;-69
2022/03/28 05:10:37;;;;;;;;;;;23.90;35.00;;;;;;1602247;73;775;-68
2022/03/28 05:12:39;;;;;;;;;;;23.90;34.90;;;;;;1596244;73;1129;-68
2022/03/28 05:14:41;;;;;;;;;;;23.70;34.80;;;;;;1595210;73;785;-69
2022/03/28 05:16:43;;;;;;;;;;;23.70;34.80;;;;;;1590955;73;791;-69
2022/03/28 05:18:45;;;;;;;;;;;23.60;34.90;;;;;;1593419;73;806;-67
2022/03/28 05:20:47;;;;;;;;;;;23.60;35.10;;;;;;1591774;73;1921;-67
2022/03/28 05:22:48;;;;;;;;;;;23.60;35.10;;;;;;1594806;73;1078;-68
2022/03/28 05:24:51;;;;;;;;;;;23.50;35.00;;;;;;1588222;73;765;-69
2022/03/28 05:26:53;;;;;;;;;;;23.40;35.10;;;;;;1594955;73;738;-68
2022/03/28 05:28:55;;;;;;;;;;;23.40;35.20;;;;;;1609568;73;780;-69
2022/03/28 05:30:58;;;;;;;;;;;23.30;35.20;;;;;;1605140;73;760;-67
2022/03/28 05:33:00;;;;;;;;;;;23.30;35.30;;;;;;1589377;73;1152;-67
2022/03/28 05:35:02;;;;;;;;;;;23.30;35.40;;;;;;1589743;73;767;-68
2022/03/28 05:37:05;;;;;;;;;;;23.30;35.60;;;;;;1607077;73;713;-67
2022/03/28 05:39:07;;;;;;;;;;;23.20;35.50;;;;;;1603634;73;699;-67
2022/03/28 05:41:09;;;;;;;;;;;23.30;35.60;;;;;;1589407;73;1901;-67
2022/03/28 05:43:11;;;;;;;;;;;23.20;35.50;;;;;;1603043;73;1178;-66
2022/03/28 05:45:13;;;;;;;;;;;23.20;35.60;;;;;;1555195;75;770;-67
2022/03/28 05:47:15;;;;;;;;;;;23.40;35.60;;;;;;1550332;75;733;-67
2022/03/28 05:49:16;;;;;;;;;;;23.30;35.50;;;;;;1542635;75;690;-67
2022/03/28 05:51:18;;;;;;;;;;;23.40;35.60;;;;;;1588030;73;783;-67
2022/03/28 05:53:20;;;;;;;;;;;23.30;35.50;;;;;;1592802;73;1244;-70
2022/03/28 05:55:22;;;;;;;;;;;23.40;35.20;;;;;;1588527;73;780;-73
2022/03/28 05:57:24;;;;;;;;;;;23.40;35.00;;;;;;1593332;73;706;-68
2022/03/28 05:59:26;;;;;;;;;;;23.30;35.00;;;;;;1594430;73;1933;-68
2022/03/28 06:01:28;;;;;;;;;;;23.30;34.90;;;;;;1593350;73;782;-68
2022/03/28 06:03:30;;;;;;;;;;;23.20;35.00;;;;;;1617505;72;1138;-68
2022/03/28 06:05:32;;;;;;;;;;;23.20;34.90;;;;;;1599674;73;794;-68
2022/03/28 06:07:34;;;;;;;;;;;23.20;34.90;;;;;;1583709;73;738;-68
2022/03/28 06:09:36;;;;;;;;;;;23.10;35.00;;;;;;1606743;73;629;-68
2022/03/28 06:11:38;;;;;;;;;;;23.10;34.90;;;;;;1588094;73;746;-68
2022/03/28 06:13:42;;;;;;;;;;;23.20;34.70;;;;;;1582092;73;1151;-67
2022/03/28 06:15:43;;;;;;;;;;;23.10;34.90;;;;;;1594351;73;1443;-68
2022/03/28 06:17:46;;;;;;;;;;;23.10;35.10;;;;;;1570619;75;802;-68
2022/03/28 06:19:47;;;;;;;;;;;23.10;34.80;;;;;;1539730;75;1903;-68
2022/03/28 06:21:49;;;;;;;;;;;23.00;34.90;;;;;;1543096;75;721;-69
2022/03/28 06:23:51;;;;;;;;;;;23.10;34.80;;;;;;1589431;73;1070;-68
2022/03/28 06:25:53;;;;;;;;;;;23.00;34.60;;;;;;1589554;73;721;-69
2022/03/28 06:27:55;;;;;;;;;;;23.10;34.80;;;;;;1588603;73;754;-68
2022/03/28 06:29:57;;;;;;;;;;;23.10;34.80;;;;;;1590198;73;818;-68
2022/03/28 06:31:59;;;;;;;;;;;23.10;34.70;;;;;;1590308;73;1075;-68
2022/03/28 06:34:03;;;;;;;;;;;23.10;34.70;;;;;;1586037;73;732;-68
2022/03/28 06:36:05;;;;;;;;;;;23.00;34.70;;;;;;1591472;73;910;-68
2022/03/28 06:38:07;;;;;;;;;;;23.10;34.80;;;;;;1590681;73;702;-68
2022/03/28 06:40:10;;;;;;;;;;;23.10;34.70;;;;;;1596489;73;1942;-69
2022/03/28 06:42:11;;;;;;;;;;;23.10;34.70;;;;;;1594214;72;1124;-66
2022/03/28 06:44:13;;;;;;;;;;;23.10;34.80;;;;;;1584294;73;767;-67
2022/03/28 06:46:15;;;;;;;;;;;23.30;34.70;;;;;;1607434;73;898;-67
2022/03/28 06:48:18;;;;;;;;;;;23.40;34.20;;;;;;1594349;73;801;-67
2022/03/28 06:50:20;;;;;;;;;;;23.30;33.80;;;;;;1596642;73;814;-65
2022/03/28 06:52:22;;;;;;;;;;;23.30;33.40;;;;;;1594070;73;1122;-65
2022/03/28 06:54:24;;;;;;;;;;;23.30;33.10;;;;;;1597655;73;716;-65
2022/03/28 06:56:26;;;;;;;;;;;23.30;32.90;;;;;;1603745;73;821;-67
2022/03/28 06:58:28;;;;;;;;;;;23.30;32.70;;;;;;1603029;73;726;-67
2022/03/28 07:00:30;;;;;;;;;;;23.30;32.60;;;;;;1607851;73;1940;-71
2022/03/28 07:02:32;;;;;;;;;;;23.30;32.40;;;;;;1608624;72;1236;-66
2022/03/28 07:04:33;;;;;;;;;;;23.30;32.30;;;;;;1604535;73;780;-67
2022/03/28 07:06:35;;;;;;;;;;;23.30;32.10;;;;;;1591691;73;783;-65
2022/03/28 07:08:37;;;;;;;;;;;23.30;32.00;;;;;;1595113;73;783;-65
2022/03/28 07:10:39;;;;;;;;;;;23.20;31.80;;;;;;1595815;73;792;-65
2022/03/28 07:12:41;;;;;;;;;;;23.20;31.80;;;;;;1581546;73;1131;-65
2022/03/28 07:14:43;;;;;;;;;;;23.20;31.70;;;;;;1609014;73;664;-65
2022/03/28 07:16:45;;;;;;;;;;;23.30;31.70;;;;;;1595443;73;782;-67
2022/03/28 07:18:47;;;;;;;;;;;23.30;31.50;;;;;;1594073;73;798;-66
2022/03/28 07:20:50;;;;;;;;;;;23.40;31.40;;;;;;1592931;73;1944;-66
2022/03/28 07:22:52;;;;;;;;;;;23.40;31.30;;;;;;1585493;73;1174;-66
2022/03/28 07:24:54;;;;;;;;;;;23.50;31.40;;;;;;1602176;73;654;-66
2022/03/28 07:26:56;;;;;;;;;;;23.50;31.30;;;;;;1579937;73;743;-66
2022/03/28 07:29:02;;;;;;;;;;;23.50;31.20;;;;;;1592458;73;774;-67
2022/03/28 07:31:01;;;;;;;;;;;23.50;31.00;;;;;;1603133;73;1564;-67
2022/03/28 07:33:03;;;;;;;;;;;23.50;31.00;;;;;;1608060;72;1147;-65
2022/03/28 07:35:06;;;;;;;;;;;23.60;30.80;;;;;;1596836;73;757;-66
2022/03/28 07:37:09;;;;;;;;;;;23.60;30.80;;;;;;1603726;73;742;-65
2022/03/28 07:39:11;;;;;;;;;;;23.60;30.80;;;;;;1597427;73;797;-67
2022/03/28 07:41:14;;;;;;;;;;;23.70;30.70;;;;;;1599744;73;1939;-67
2022/03/28 07:43:16;;;;;;;;;;;23.70;30.70;;;;;;1597637;73;1139;-66
2022/03/28 07:45:18;;;;;;;;;;;23.80;30.60;;;;;;1554335;75;734;-67
2022/03/28 07:47:20;;;;;;;;;;;23.90;30.50;;;;;;1558097;75;861;-65
2022/03/28 07:49:24;;;;;;;;;;;23.90;30.40;;;;;;1595549;73;774;-66
2022/03/28 07:51:26;;;;;;;;;;;23.90;30.30;;;;;;1614314;73;705;-66
2022/03/28 07:53:28;;;;;;;;;;;24.00;30.20;;;;;;1593054;74;1163;-68
2022/03/28 07:55:30;;;;;;;;;;;24.00;30.10;;;;;;1586683;73;786;-67
2022/03/28 07:57:32;;;;;;;;;;;24.10;30.10;;;;;;1608167;73;770;-66
2022/03/28 07:59:33;;;;;;;;;;;24.10;30.00;;;;;;1607351;73;737;-67
2022/03/28 08:01:35;;;;;;;;;;;24.10;30.00;;;;;;1605913;73;1935;-66
2022/03/28 08:03:37;;;;;;;;;;;24.00;29.80;;;;;;1593092;73;1130;-65
2022/03/28 08:05:39;;;;;;;;;;;24.10;30.00;;;;;;1594342;73;655;-67
2022/03/28 08:07:41;;;;;;;;;;;24.10;30.00;;;;;;1594273;73;771;-68
2022/03/28 08:09:43;;;;;;;;;;;24.20;29.80;;;;;;1593171;73;877;-70
2022/03/28 08:11:45;;;;;;;;;;;24.10;29.80;;;;;;1590704;73;703;-68
2022/03/28 08:13:47;;;;;;;;;;;24.20;29.70;;;;;;1593708;73;1039;-69
2022/03/28 08:15:48;;;;;;;;;;;24.30;29.80;;;;;;1592977;73;695;-65
2022/03/28 08:17:50;;;;;;;;;;;24.30;29.80;;;;;;1596318;73;792;-68
2022/03/28 08:19:52;;;;;;;;;;;24.20;29.60;;;;;;1596765;73;737;-66
2022/03/28 08:21:54;;;;;;;;;;;24.20;29.50;;;;;;1598062;73;1941;-68
2022/03/28 08:23:56;;;;;;;;;;;24.20;29.50;;;;;;1596868;73;1178;-67
2022/03/28 08:25:59;;;;;;;;;;;24.30;29.60;;;;;;1592380;73;718;-66
2022/03/28 08:28:01;;;;;;;;;;;24.30;29.60;;;;;;1591298;73;727;-65
2022/03/28 08:30:04;;;;;;;;;;;24.30;29.40;;;;;;1587059;73;768;-66
2022/03/28 08:32:06;;;;;;;;;;;24.40;29.40;;;;;;1597202;73;1122;-67
2022/03/28 08:34:08;;;;;;;;;;;24.30;29.40;;;;;;1598993;73;763;-66
2022/03/28 08:36:10;;;;;;;;;;;24.40;29.40;;;;;;1609040;73;686;-68
2022/03/28 08:38:12;;;;;;;;;;;24.40;29.30;;;;;;1606660;73;791;-67
2022/03/28 08:40:14;;;;;;;;;;;24.50;29.20;;;;;;1589777;73;777;-66
2022/03/28 08:42:17;;;;;;;;;;;24.50;29.20;;;;;;1597158;73;1937;-66
2022/03/28 08:44:20;;;;;;;;;;;24.50;29.20;;;;;;1597674;73;791;-66
2022/03/28 08:46:22;;;;;;;;;;;24.50;29.20;;;;;;1598036;73;812;-66
2022/03/28 08:48:24;;;;;;;;;;;24.50;29.10;;;;;;1573702;75;845;-65
2022/03/28 08:50:26;;;;;;;;;;;24.60;29.00;;;;;;1590487;73;796;-67
2022/03/28 08:52:28;;;;;;;;;;;24.60;28.90;;;;;;1609220;71;2111;-64
2022/03/28 08:54:30;;;;;;;;;;;24.60;28.90;;;;;;1483954;78;721;-65
2022/03/28 08:56:31;;;;;;;;;;;24.60;28.80;;;;;;1488442;79;706;-67
2022/03/28 08:58:33;;;;;;;;;;;24.70;28.90;;;;;;1488922;79;707;-68
2022/03/28 09:00:35;;;;;;;;;;;24.70;28.90;;;;;;1468373;79;1972;-66
2022/03/28 09:02:50;;;;;;;;;;;24.70;28.90;;;;;;1487135;79;1212;-67
2022/03/28 09:04:47;;;;;;;;;;;24.60;28.70;;;;;;1479720;79;1147;-66
2022/03/28 09:06:49;;;;;;;;;;;24.70;28.80;;;;;;1492261;79;798;-65
2022/03/28 09:08:51;;;;;;;;;;;24.60;28.60;;;;;;1502568;79;735;-66
2022/03/28 09:10:53;;;;;;;;;;;24.60;28.60;;;;;;1481273;79;796;-66
2022/03/28 09:12:58;;;;;;;;;;;24.60;28.70;;;;;;1485075;79;1189;-66
2022/03/28 09:15:02;;;;;;;;;;;24.60;28.60;;;;;;1483549;79;739;-66
2022/03/28 09:17:10;;;;;;;;;;;24.60;28.60;;;;;;1481653;79;967;-65
2022/03/28 09:19:14;;;;;;;;;;;24.70;28.80;;;;;;1490078;79;736;-64
2022/03/28 09:21:16;;;;;;;;;;;24.50;28.60;;;;;;1487911;79;1923;-65
2022/03/28 09:23:33;;;;;;;;;;;24.60;28.60;;;;;;1494532;79;1191;-65
2022/03/28 09:25:36;;;;;;;;;;;24.60;28.60;;;;;;1487264;79;698;-65
2022/03/28 09:27:39;;;;;;;;;;;24.60;28.60;;;;;;1476213;79;1135;-65
2022/03/28 09:29:53;;;;;;;;;;;24.60;28.60;;;;;;1479797;79;717;-67
2022/03/28 09:31:55;;;;;;;;;;;24.60;28.60;;;;;;1482536;79;822;-66
2022/03/28 09:33:59;;;;;;;;;;;24.60;28.60;;;;;;1485733;79;1225;-67
2022/03/28 09:36:00;;;;;;;;;;;24.50;28.60;;;;;;1493262;79;735;-65
2022/03/28 09:38:04;;;;;;;;;;;24.50;28.70;;;;;;1489676;79;685;-65
2022/03/28 09:40:10;;;;;;;;;;;24.60;28.50;;;;;;1489378;79;719;-64
2022/03/28 09:42:12;;;;;;;;;;;24.60;28.40;;;;;;1479131;79;1942;-64
2022/03/28 09:44:14;;;;;;;;;;;24.50;28.40;;;;;;1486068;79;1163;-64
2022/03/28 09:46:16;;;;;;;;;;;24.50;28.40;;;;;;1483478;79;722;-63
2022/03/28 09:48:19;;;;;;;;;;;24.50;28.40;;;;;;1457788;79;996;-64
2022/03/28 09:50:23;;;;;;;;;;;24.40;28.40;;;;;;1483171;79;646;-64
2022/03/28 09:52:25;;;;;;;;;;;24.40;28.40;;;;;;1480724;79;1157;-66
2022/03/28 09:54:30;;;;;;;;;;;24.50;28.10;;;;;;1485352;79;787;-63
2022/03/28 09:56:31;;;;;;;;;;;24.40;28.10;;;;;;1476598;79;1703;-67
2022/03/28 09:58:35;;;;;;;;;;;24.40;28.10;;;;;;1485202;79;729;-65
2022/03/28 10:00:37;;;;;;;;;;;24.30;28.10;;;;;;1499875;79;682;-63
2022/03/28 10:02:38;;;;;;;;;;;24.40;28.10;;;;;;1484893;79;1938;-64
2022/03/28 10:04:41;;;;;;;;;;;24.30;28.30;;;;;;1493827;79;705;-62
2022/03/28 10:06:43;;;;;;;;;;;24.30;28.30;;;;;;1470740;79;713;-66
2022/03/28 10:08:45;;;;;;;;;;;24.30;28.30;;;;;;1488789;79;890;-66
2022/03/28 10:10:47;;;;;;;;;;;24.40;28.20;;;;;;1480778;79;727;-63
2022/03/28 10:12:48;;;;;;;;;;;24.30;28.20;;;;;;1480555;79;1183;-66
2022/03/28 10:14:53;;;;;;;;;;;24.30;28.30;;;;;;1480840;79;610;-66
2022/03/28 10:16:54;;;;;;;;;;;24.30;28.30;;;;;;1480275;79;1724;-67
2022/03/28 10:18:56;;;;;;;;;;;24.30;28.30;;;;;;1480899;79;726;-69
2022/03/28 10:21:03;;;;;;;;;;;24.30;28.30;;;;;;1479841;79;1940;-65
2022/03/28 10:23:05;;;;;;;;;;;24.30;28.30;;;;;;1478665;78;1138;-66
2022/03/28 10:25:08;;;;;;;;;;;24.30;28.40;;;;;;1482911;78;942;-64
2022/03/28 10:27:10;;;;;;;;;;;24.30;28.20;;;;;;1479126;79;1177;-63
2022/03/28 10:29:22;;;;;;;;;;;24.30;28.30;;;;;;1481052;79;712;-65
2022/03/28 10:31:20;;;;;;;;;;;24.20;28.10;;;;;;1491167;79;1085;-65
2022/03/28 10:33:22;;;;;;;;;;;24.30;28.20;;;;;;1492789;79;1146;-66
2022/03/28 10:35:24;;;;;;;;;;;24.20;28.10;;;;;;1482735;79;678;-64
2022/03/28 10:37:30;;;;;;;;;;;24.20;28.20;;;;;;1484520;79;688;-64
2022/03/28 10:39:33;;;;;;;;;;;24.20;28.10;;;;;;1491955;79;1011;-65
2022/03/28 10:41:35;;;;;;;;;;;24.20;28.10;;;;;;1480517;79;1935;-65
2022/03/28 10:43:37;;;;;;;;;;;24.20;28.10;;;;;;1456400;79;1160;-63
2022/03/28 10:45:49;;;;;;;;;;;24.20;28.10;;;;;;1481863;78;727;-65
2022/03/28 10:47:52;;;;;;;;;;;24.20;28.10;;;;;;1480740;79;672;-67
2022/03/28 10:49:54;;;;;;;;;;;24.20;28.10;;;;;;1478678;79;713;-67
2022/03/28 10:51:56;;;;;;;;;;;24.20;28.20;;;;;;1481100;79;759;-67
2022/03/28 10:54:03;;;;;;;;;;;24.30;28.30;;;;;;1485353;79;1456;-66
2022/03/28 10:56:06;;;;;;;;;;;24.20;28.00;;;;;;1485486;79;740;-66
2022/03/28 10:58:13;;;;;;;;;;;24.20;28.10;;;;;;1485673;79;670;-66
2022/03/28 11:00:15;;;;;;;;;;;24.20;27.90;;;;;;1484487;79;1022;-70
2022/03/28 11:02:29;;;;;;;;;;;24.20;28.10;;;;;;1485781;79;1935;-66
2022/03/28 11:04:31;;;;;;;;;;;24.20;28.30;;;;;;1482213;79;748;-71
2022/03/28 11:06:47;;;;;;;;;;;24.20;28.40;;;;;;1461075;79;1240;-69
2022/03/28 11:08:59;;;;;;;;;;;24.10;28.50;;;;;;1483806;79;721;-65
2022/03/28 11:11:11;;;;;;;;;;;24.10;28.60;;;;;;1479091;80;680;-67
2022/03/28 11:13:16;;;;;;;;;;;24.10;28.70;;;;;;1491235;79;1167;-66
2022/03/28 11:15:21;;;;;;;;;;;24.10;28.90;;;;;;1490895;78;707;-68
2022/03/28 11:17:24;;;;;;;;;;;24.00;28.80;;;;;;1482006;78;702;-68
2022/03/28 11:19:30;;;;;;;;;;;24.00;28.80;;;;;;1490673;78;782;-69
2022/03/28 11:21:31;;;;;;;;;;;24.10;29.10;;;;;;1485647;79;1931;-69
2022/03/28 11:23:37;;;;;;;;;;;24.00;29.00;;;;;;1493093;79;1163;-68
2022/03/28 11:25:46;;;;;;;;;;;24.00;29.00;;;;;;1475553;78;1960;-68
2022/03/28 11:27:48;;;;;;;;;;;24.00;29.10;;;;;;1481648;79;717;-67
2022/03/28 11:29:49;;;;;;;;;;;23.90;29.20;;;;;;1489839;79;709;-68
2022/03/28 11:31:51;;;;;;;;;;;24.00;29.20;;;;;;1486441;79;731;-69
2022/03/28 11:33:55;;;;;;;;;;;24.00;29.30;;;;;;1491791;78;1126;-66
2022/03/28 11:35:58;;;;;;;;;;;24.00;29.30;;;;;;1498377;79;1442;-67
2022/03/28 11:38:00;;;;;;;;;;;24.00;29.40;;;;;;1494820;79;748;-66
2022/03/28 11:40:03;;;;;;;;;;;24.00;29.40;;;;;;1492644;79;731;-66
2022/03/28 11:42:05;;;;;;;;;;;24.00;29.50;;;;;;1480270;79;1938;-65
2022/03/28 11:44:08;;;;;;;;;;;24.00;29.50;;;;;;1485806;79;1138;-65
2022/03/28 11:46:12;;;;;;;;;;;23.90;29.60;;;;;;1483479;79;955;-67
2022/03/28 11:48:15;;;;;;;;;;;23.90;29.70;;;;;;1485958;79;808;-66
2022/03/28 11:50:17;;;;;;;;;;;23.90;29.70;;;;;;1477099;79;778;-66
2022/03/28 11:52:19;;;;;;;;;;;23.90;29.80;;;;;;1485943;79;1150;-66
2022/03/28 11:54:22;;;;;;;;;;;23.90;29.90;;;;;;1486152;79;801;-65
2022/03/28 11:56:31;;;;;;;;;;;23.90;29.90;;;;;;1486600;78;700;-64
2022/03/28 11:58:33;;;;;;;;;;;24.00;29.80;;;;;;1480599;79;774;-65
2022/03/28 12:00:35;;;;;;;;;;;23.90;29.90;;;;;;1479902;78;732;-65
2022/03/28 12:02:38;;;;;;;;;;;23.90;29.70;;;;;;1481335;78;1935;-67
2022/03/28 12:04:42;;;;;;;;;;;23.90;29.60;;;;;;1478156;78;1836;-64
2022/03/28 12:06:44;;;;;;;;;;;23.90;29.60;;;;;;1477103;78;1392;-64
2022/03/28 12:08:47;;;;;;;;;;;23.90;29.20;;;;;;1491330;78;718;-65
2022/03/28 12:10:50;;;;;;;;;;;23.90;29.30;;;;;;1486529;78;1848;-65